createdAt,value
2018-01-25T00:00:22.980Z,940.20
2018-01-25T00:01:22.978Z,940.20
2018-01-25T00:02:22.972Z,940.16
2018-01-25T00:03:22.967Z,940.19
2018-01-25T00:04:22.963Z,940.23
2018-01-25T00:05:22.959Z,940.18
2018-01-25T00:06:22.958Z,940.17
2018-01-25T00:07:22.952Z,940.11
2018-01-25T00:08:22.948Z,940.13
2018-01-25T00:09:22.945Z,940.11
2018-01-25T00:10:22.940Z,940.07
2018-01-25T00:11:22.936Z,940.07
2018-01-25T00:12:22.933Z,940.09
2018-01-25T00:13:22.929Z,940.01
2018-01-25T00:14:22.925Z,940.03
2018-01-25T00:15:22.921Z,939.99
2018-01-25T00:16:22.917Z,940.04
2018-01-25T00:17:22.914Z,940.01
2018-01-25T00:18:22.911Z,940.02
2018-01-25T00:19:22.907Z,940.04
2018-01-25T00:20:22.904Z,939.97
2018-01-25T00:21:22.903Z,939.95
2018-01-25T00:22:22.895Z,939.95
2018-01-25T00:23:22.892Z,939.95
2018-01-25T00:24:22.889Z,939.92
2018-01-25T00:25:22.885Z,939.95
2018-01-25T00:26:22.882Z,939.93
2018-01-25T00:27:22.877Z,939.93
2018-01-25T00:28:22.874Z,939.90
2018-01-25T00:29:22.870Z,939.89
2018-01-25T00:30:22.866Z,939.93
2018-01-25T00:31:22.863Z,939.93
2018-01-25T00:32:22.859Z,939.88
2018-01-25T00:33:22.856Z,939.88
2018-01-25T00:34:22.851Z,939.85
2018-01-25T00:35:22.848Z,939.90
2018-01-25T00:36:22.844Z,939.92
2018-01-25T00:37:22.842Z,939.92
2018-01-25T00:38:22.838Z,939.95
2018-01-25T00:39:22.835Z,939.93
2018-01-25T00:40:22.831Z,939.96
2018-01-25T00:41:22.825Z,939.96
2018-01-25T00:42:22.823Z,939.94
2018-01-25T00:43:22.819Z,939.94
2018-01-25T00:44:22.815Z,939.94
2018-01-25T00:45:22.813Z,939.93
2018-01-25T00:46:22.807Z,939.86
2018-01-25T00:47:22.804Z,939.85
2018-01-25T00:48:22.800Z,939.83
2018-01-25T00:49:22.797Z,939.82
2018-01-25T00:50:22.791Z,939.82
2018-01-25T00:51:22.789Z,939.83
2018-01-25T00:52:22.789Z,939.86
2018-01-25T00:53:22.781Z,939.89
2018-01-25T00:54:22.776Z,939.87
2018-01-25T00:55:22.772Z,939.96
2018-01-25T00:56:22.769Z,939.97
2018-01-25T00:57:22.765Z,939.89
2018-01-25T00:58:22.762Z,939.97
2018-01-25T00:59:22.757Z,939.94
2018-01-25T01:00:22.753Z,939.89
2018-01-25T01:01:22.750Z,939.87
2018-01-25T01:02:22.745Z,939.91
2018-01-25T01:03:22.741Z,939.92
2018-01-25T01:04:22.738Z,939.94
2018-01-25T01:05:22.733Z,939.95
2018-01-25T01:06:22.730Z,940.01
2018-01-25T01:07:22.726Z,940.06
2018-01-25T01:08:22.722Z,940.08
2018-01-25T01:09:22.718Z,940.14
2018-01-25T01:10:22.713Z,940.12
2018-01-25T01:11:22.710Z,940.13
2018-01-25T01:12:22.706Z,940.14
2018-01-25T01:13:22.702Z,940.16
2018-01-25T01:14:22.697Z,940.14
2018-01-25T01:15:22.696Z,940.15
2018-01-25T01:16:22.693Z,940.19
2018-01-25T01:17:22.687Z,940.19
2018-01-25T01:18:22.682Z,940.21
2018-01-25T01:19:22.678Z,940.23
2018-01-25T01:20:22.675Z,940.24
2018-01-25T01:21:22.670Z,940.27
2018-01-25T01:22:22.666Z,940.33
2018-01-25T01:23:22.662Z,940.34
2018-01-25T01:24:22.659Z,940.28
2018-01-25T01:25:22.654Z,940.27
2018-01-25T01:26:22.649Z,940.27
2018-01-25T01:27:22.647Z,940.18
2018-01-25T01:28:22.641Z,940.22
2018-01-25T01:29:22.639Z,940.21
2018-01-25T01:30:22.635Z,940.21
2018-01-25T01:31:22.631Z,940.24
2018-01-25T01:32:22.627Z,940.22
2018-01-25T01:33:22.623Z,940.26
2018-01-25T01:34:22.618Z,940.24
2018-01-25T01:35:22.614Z,940.29
2018-01-25T01:36:22.611Z,940.35
2018-01-25T01:37:22.610Z,940.30
2018-01-25T01:38:22.601Z,940.34
2018-01-25T01:39:22.598Z,940.32
2018-01-25T01:40:22.594Z,940.31
2018-01-25T01:41:22.590Z,940.36
2018-01-25T01:42:22.586Z,940.40
2018-01-25T01:43:22.580Z,940.38
2018-01-25T01:44:22.576Z,940.40
2018-01-25T01:45:22.573Z,940.44
2018-01-25T01:46:22.568Z,940.38
2018-01-25T01:47:22.565Z,940.35
2018-01-25T01:48:22.561Z,940.34
2018-01-25T01:49:22.558Z,940.30
2018-01-25T01:50:22.551Z,940.28
2018-01-25T01:51:22.548Z,940.32
2018-01-25T01:52:22.544Z,940.29
2018-01-25T01:53:22.539Z,940.33
2018-01-25T01:54:22.534Z,940.31
2018-01-25T01:55:22.531Z,940.32
2018-01-25T01:56:22.527Z,940.32
2018-01-25T01:57:22.523Z,940.37
2018-01-25T01:58:22.517Z,940.35
2018-01-25T01:59:22.514Z,940.35
2018-01-25T02:00:22.509Z,940.39
2018-01-25T02:01:22.505Z,940.40
2018-01-25T02:02:22.500Z,940.35
2018-01-25T02:03:22.500Z,940.32
2018-01-25T02:04:22.492Z,940.33
2018-01-25T02:05:22.489Z,940.30
2018-01-25T02:06:22.485Z,940.31
2018-01-25T02:07:22.480Z,940.32
2018-01-25T02:08:22.476Z,940.26
2018-01-25T02:09:22.472Z,940.28
2018-01-25T02:10:22.466Z,940.30
2018-01-25T02:11:22.462Z,940.27
2018-01-25T02:12:22.458Z,940.28
2018-01-25T02:13:22.455Z,940.23
2018-01-25T02:14:22.448Z,940.24
2018-01-25T02:15:22.447Z,940.24
2018-01-25T02:16:22.442Z,940.20
2018-01-25T02:17:22.484Z,940.14
2018-01-25T02:18:22.432Z,940.17
2018-01-25T02:19:22.427Z,940.12
2018-01-25T02:20:22.426Z,940.10
2018-01-25T02:21:22.420Z,940.11
2018-01-25T02:22:22.416Z,940.12
2018-01-25T02:23:22.412Z,940.08
2018-01-25T02:24:22.408Z,940.10
2018-01-25T02:25:22.403Z,940.08
2018-01-25T02:26:22.398Z,940.11
2018-01-25T02:27:22.394Z,940.09
2018-01-25T02:28:22.390Z,940.09
2018-01-25T02:29:22.386Z,940.11
2018-01-25T02:30:22.382Z,940.09
2018-01-25T02:31:22.378Z,940.11
2018-01-25T02:32:22.375Z,940.08
2018-01-25T02:33:22.375Z,940.09
2018-01-25T02:34:22.366Z,940.07
2018-01-25T02:35:22.360Z,940.09
2018-01-25T02:36:22.358Z,940.05
2018-01-25T02:37:22.356Z,940.06
2018-01-25T02:38:22.348Z,940.09
2018-01-25T02:39:22.346Z,940.08
2018-01-25T02:40:22.340Z,940.03
2018-01-25T02:41:22.337Z,939.99
2018-01-25T02:42:22.332Z,940.00
2018-01-25T02:43:22.327Z,939.99
2018-01-25T02:44:22.322Z,939.98
2018-01-25T02:45:22.320Z,939.97
2018-01-25T02:46:22.314Z,939.95
2018-01-25T02:47:22.312Z,939.95
2018-01-25T02:48:22.306Z,939.94
2018-01-25T02:49:22.303Z,939.95
2018-01-25T02:50:22.298Z,939.97
2018-01-25T02:51:22.294Z,939.96
2018-01-25T02:52:22.290Z,940.01
2018-01-25T02:53:22.285Z,939.99
2018-01-25T02:54:22.280Z,939.99
2018-01-25T02:55:22.277Z,939.98
2018-01-25T02:56:22.273Z,939.97
2018-01-25T02:57:22.271Z,939.96
2018-01-25T02:58:22.265Z,939.94
2018-01-25T02:59:22.259Z,939.95
2018-01-25T03:00:22.256Z,939.94
2018-01-25T03:01:22.252Z,939.95
2018-01-25T03:02:22.248Z,940.01
2018-01-25T03:03:22.243Z,939.93
2018-01-25T03:04:22.239Z,939.93
2018-01-25T03:05:22.236Z,939.92
2018-01-25T03:06:22.232Z,939.93
2018-01-25T03:07:22.228Z,939.92
2018-01-25T03:08:22.223Z,939.95
2018-01-25T03:09:22.220Z,939.91
2018-01-25T03:10:22.213Z,939.91
2018-01-25T03:11:22.209Z,939.87
2018-01-25T03:12:22.207Z,939.88
2018-01-25T03:13:22.203Z,939.87
2018-01-25T03:14:22.199Z,939.87
2018-01-25T03:15:22.246Z,939.85
2018-01-25T03:16:22.189Z,939.84
2018-01-25T03:17:22.186Z,939.83
2018-01-25T03:18:22.181Z,939.83
2018-01-25T03:19:22.177Z,939.85
2018-01-25T03:20:22.173Z,939.78
2018-01-25T03:21:22.168Z,939.80
2018-01-25T03:22:22.165Z,939.83
2018-01-25T03:23:22.160Z,939.79
2018-01-25T03:24:22.155Z,939.75
2018-01-25T03:25:22.153Z,939.78
2018-01-25T03:26:22.147Z,939.80
2018-01-25T03:27:22.144Z,939.77
2018-01-25T03:28:22.140Z,939.75
2018-01-25T03:29:22.136Z,939.75
2018-01-25T03:30:22.131Z,939.73
2018-01-25T03:31:22.130Z,939.75
2018-01-25T03:32:22.123Z,939.75
2018-01-25T03:33:22.119Z,939.74
2018-01-25T03:34:22.114Z,939.76
2018-01-25T03:35:22.110Z,939.72
2018-01-25T03:36:22.106Z,939.72
2018-01-25T03:37:22.101Z,939.75
2018-01-25T03:38:22.102Z,939.74
2018-01-25T03:39:22.092Z,939.68
2018-01-25T03:40:22.089Z,939.71
2018-01-25T03:41:22.085Z,939.66
2018-01-25T03:42:22.080Z,939.71
2018-01-25T03:43:22.076Z,939.69
2018-01-25T03:44:22.071Z,939.66
2018-01-25T03:45:22.068Z,939.69
2018-01-25T03:46:22.068Z,939.67
2018-01-25T03:47:22.059Z,939.67
2018-01-25T03:48:22.054Z,939.69
2018-01-25T03:49:22.051Z,939.68
2018-01-25T03:50:22.045Z,939.71
2018-01-25T03:51:22.042Z,939.69
2018-01-25T03:52:22.037Z,939.69
2018-01-25T03:53:22.032Z,939.70
2018-01-25T03:54:22.028Z,939.69
2018-01-25T03:55:22.024Z,939.66
2018-01-25T03:56:22.020Z,939.69
2018-01-25T03:57:22.015Z,939.67
2018-01-25T03:58:22.011Z,939.70
2018-01-25T03:59:22.007Z,939.72
2018-01-25T04:00:22.001Z,939.69
2018-01-25T04:01:22.001Z,939.66
2018-01-25T04:02:21.993Z,939.65
2018-01-25T04:03:21.990Z,939.65
2018-01-25T04:04:21.988Z,939.69
2018-01-25T04:05:21.981Z,939.65
2018-01-25T04:06:21.976Z,939.68
2018-01-25T04:07:21.972Z,939.66
2018-01-25T04:08:21.967Z,939.65
2018-01-25T04:09:21.963Z,939.64
2018-01-25T04:10:21.959Z,939.61
2018-01-25T04:11:21.953Z,939.65
2018-01-25T04:12:21.950Z,939.61
2018-01-25T04:13:21.944Z,939.62
2018-01-25T04:14:21.940Z,939.62
2018-01-25T04:15:21.936Z,939.60
2018-01-25T04:16:21.931Z,939.58
2018-01-25T04:17:21.928Z,939.58
2018-01-25T04:18:21.923Z,939.60
2018-01-25T04:19:21.918Z,939.60
2018-01-25T04:20:21.917Z,939.58
2018-01-25T04:21:21.911Z,939.60
2018-01-25T04:22:21.905Z,939.60
2018-01-25T04:23:21.901Z,939.63
2018-01-25T04:24:21.898Z,939.63
2018-01-25T04:25:21.894Z,939.60
2018-01-25T04:26:21.888Z,939.67
2018-01-25T04:27:21.884Z,939.70
2018-01-25T04:28:21.881Z,939.69
2018-01-25T04:29:21.878Z,939.66
2018-01-25T04:30:21.870Z,939.69
2018-01-25T04:31:21.866Z,939.74
2018-01-25T04:32:21.863Z,939.71
2018-01-25T04:33:21.859Z,939.72
2018-01-25T04:34:21.853Z,939.69
2018-01-25T04:35:21.848Z,939.69
2018-01-25T04:36:21.847Z,939.67
2018-01-25T04:37:21.842Z,939.60
2018-01-25T04:38:21.836Z,939.61
2018-01-25T04:39:21.831Z,939.62
2018-01-25T04:40:21.831Z,939.60
2018-01-25T04:41:21.824Z,939.64
2018-01-25T04:42:21.818Z,939.65
2018-01-25T04:43:21.815Z,939.63
2018-01-25T04:44:21.811Z,939.63
2018-01-25T04:45:21.809Z,939.64
2018-01-25T04:46:21.801Z,939.61
2018-01-25T04:47:21.798Z,939.60
2018-01-25T04:48:21.793Z,939.60
2018-01-25T04:49:21.788Z,939.56
2018-01-25T04:50:21.783Z,939.56
2018-01-25T04:51:21.780Z,939.54
2018-01-25T04:52:21.775Z,939.53
2018-01-25T04:53:21.772Z,939.54
2018-01-25T04:54:21.765Z,939.53
2018-01-25T04:55:21.763Z,939.53
2018-01-25T04:56:21.758Z,939.52
2018-01-25T04:57:21.754Z,939.53
2018-01-25T04:58:21.750Z,939.51
2018-01-25T04:59:21.743Z,939.58
2018-01-25T05:00:21.739Z,939.55
2018-01-25T05:01:21.736Z,939.53
2018-01-25T05:02:21.730Z,939.50
2018-01-25T05:03:21.726Z,939.54
2018-01-25T05:04:21.722Z,939.54
2018-01-25T05:05:21.718Z,939.54
2018-01-25T05:06:21.711Z,939.56
2018-01-25T05:07:21.707Z,939.56
2018-01-25T05:08:21.709Z,939.59
2018-01-25T05:09:21.698Z,939.56
2018-01-25T05:10:21.693Z,939.55
2018-01-25T05:11:21.688Z,939.57
2018-01-25T05:12:21.684Z,939.58
2018-01-25T05:13:21.680Z,939.53
2018-01-25T05:14:21.674Z,939.56
2018-01-25T05:15:21.671Z,939.60
2018-01-25T05:16:21.666Z,939.58
2018-01-25T05:17:21.661Z,939.56
2018-01-25T05:18:21.655Z,939.58
2018-01-25T05:19:21.653Z,939.59
2018-01-25T05:20:21.647Z,939.57
2018-01-25T05:21:21.641Z,939.60
2018-01-25T05:22:21.637Z,939.57
2018-01-25T05:23:21.632Z,939.62
2018-01-25T05:24:21.628Z,939.61
2018-01-25T05:25:21.626Z,939.63
2018-01-25T05:26:21.619Z,939.68
2018-01-25T05:27:21.614Z,939.64
2018-01-25T05:28:21.611Z,939.67
2018-01-25T05:29:21.607Z,939.65
2018-01-25T05:30:21.601Z,939.71
2018-01-25T05:31:21.596Z,939.67
2018-01-25T05:32:21.592Z,939.69
2018-01-25T05:33:21.589Z,939.67
2018-01-25T05:34:21.584Z,939.69
2018-01-25T05:35:21.579Z,939.68
2018-01-25T05:36:21.576Z,939.69
2018-01-25T05:37:21.570Z,939.67
2018-01-25T05:38:21.566Z,939.65
2018-01-25T05:39:21.562Z,939.66
2018-01-25T05:40:21.557Z,939.62
2018-01-25T05:41:21.553Z,939.60
2018-01-25T05:42:21.548Z,939.60
2018-01-25T05:43:21.584Z,939.61
2018-01-25T05:44:21.541Z,939.60
2018-01-25T05:45:21.536Z,939.66
2018-01-25T05:46:21.532Z,939.64
2018-01-25T05:47:21.526Z,939.64
2018-01-25T05:48:21.522Z,939.64
2018-01-25T05:49:21.518Z,939.61
2018-01-25T05:50:21.514Z,939.62
2018-01-25T05:51:21.509Z,939.58
2018-01-25T05:52:21.505Z,939.57
2018-01-25T05:53:21.500Z,939.61
2018-01-25T05:54:21.496Z,939.58
2018-01-25T05:55:21.492Z,939.55
2018-01-25T05:56:21.490Z,939.53
2018-01-25T05:57:21.484Z,939.52
2018-01-25T05:58:21.479Z,939.51
2018-01-25T05:59:21.474Z,939.55
2018-01-25T06:00:21.469Z,939.57
2018-01-25T06:01:21.467Z,939.57
2018-01-25T06:02:21.459Z,939.59
2018-01-25T06:03:21.457Z,939.58
2018-01-25T06:04:21.452Z,939.54
2018-01-25T06:05:21.448Z,939.51
2018-01-25T06:06:21.442Z,939.53
2018-01-25T06:07:21.440Z,939.51
2018-01-25T06:08:21.434Z,939.55
2018-01-25T06:09:21.430Z,939.53
2018-01-25T06:10:21.424Z,939.51
2018-01-25T06:11:21.422Z,939.51
2018-01-25T06:12:21.417Z,939.47
2018-01-25T06:13:21.415Z,939.51
2018-01-25T06:14:21.407Z,939.50
2018-01-25T06:15:21.404Z,939.51
2018-01-25T06:16:21.400Z,939.57
2018-01-25T06:17:21.401Z,939.58
2018-01-25T06:18:21.390Z,939.55
2018-01-25T06:19:21.388Z,939.56
2018-01-25T06:20:21.380Z,939.49
2018-01-25T06:21:21.377Z,939.46
2018-01-25T06:22:21.371Z,939.45
2018-01-25T06:23:21.366Z,939.48
2018-01-25T06:24:21.362Z,939.55
2018-01-25T06:25:21.360Z,939.54
2018-01-25T06:26:21.353Z,939.53
2018-01-25T06:27:21.391Z,939.55
2018-01-25T06:28:21.345Z,939.49
2018-01-25T06:29:21.339Z,939.52
2018-01-25T06:30:21.336Z,939.50
2018-01-25T06:31:21.330Z,939.46
2018-01-25T06:32:21.325Z,939.44
2018-01-25T06:33:21.327Z,939.46
2018-01-25T06:34:21.316Z,939.47
2018-01-25T06:35:21.313Z,939.48
2018-01-25T06:36:21.308Z,939.49
2018-01-25T06:37:21.304Z,939.50
2018-01-25T06:38:21.298Z,939.47
2018-01-25T06:39:21.293Z,939.51
2018-01-25T06:40:21.289Z,939.47
2018-01-25T06:41:21.286Z,939.50
2018-01-25T06:42:21.280Z,939.50
2018-01-25T06:43:21.274Z,939.52
2018-01-25T06:44:21.270Z,939.61
2018-01-25T06:45:21.267Z,939.62
2018-01-25T06:46:21.262Z,939.59
2018-01-25T06:47:21.257Z,939.61
2018-01-25T06:48:21.253Z,939.62
2018-01-25T06:49:21.248Z,939.57
2018-01-25T06:50:21.243Z,939.63
2018-01-25T06:51:21.240Z,939.64
2018-01-25T06:52:21.234Z,939.64
2018-01-25T06:53:21.229Z,939.67
2018-01-25T06:54:21.224Z,939.65
2018-01-25T06:55:21.219Z,939.63
2018-01-25T06:56:21.215Z,939.63
2018-01-25T06:57:21.213Z,939.63
2018-01-25T06:58:21.241Z,939.60
2018-01-25T06:59:21.199Z,939.60
2018-01-25T07:00:21.196Z,939.59
2018-01-25T07:01:21.191Z,939.57
2018-01-25T07:02:21.186Z,939.60
2018-01-25T07:03:21.181Z,939.58
2018-01-25T07:04:21.177Z,939.62
2018-01-25T07:05:21.172Z,939.58
2018-01-25T07:06:21.165Z,939.59
2018-01-25T07:07:21.162Z,939.62
2018-01-25T07:08:21.158Z,939.59
2018-01-25T07:09:21.154Z,939.64
2018-01-25T07:10:21.148Z,939.57
2018-01-25T07:11:21.144Z,939.61
2018-01-25T07:12:21.140Z,939.60
2018-01-25T07:13:21.135Z,939.62
2018-01-25T07:14:21.128Z,939.63
2018-01-25T07:15:21.126Z,939.62
2018-01-25T07:16:21.120Z,939.63
2018-01-25T07:17:21.115Z,939.64
2018-01-25T07:18:21.111Z,939.62
2018-01-25T07:19:21.107Z,939.58
2018-01-25T07:20:21.103Z,939.64
2018-01-25T07:21:21.098Z,939.60
2018-01-25T07:22:21.094Z,939.65
2018-01-25T07:23:21.090Z,939.58
2018-01-25T07:24:21.085Z,939.61
2018-01-25T07:25:21.080Z,939.60
2018-01-25T07:26:21.077Z,939.61
2018-01-25T07:27:21.072Z,939.61
2018-01-25T07:28:21.066Z,939.62
2018-01-25T07:29:21.065Z,939.64
2018-01-25T07:30:21.059Z,939.64
2018-01-25T07:31:21.056Z,939.66
2018-01-25T07:32:21.052Z,939.61
2018-01-25T07:33:21.046Z,939.67
2018-01-25T07:34:21.043Z,939.68
2018-01-25T07:35:21.038Z,939.69
2018-01-25T07:36:21.034Z,939.57
2018-01-25T07:37:21.031Z,939.66
2018-01-25T07:38:21.027Z,939.63
2018-01-25T07:39:21.023Z,939.61
2018-01-25T07:40:21.019Z,939.66
2018-01-25T07:41:21.016Z,939.66
2018-01-25T07:42:21.015Z,939.70
2018-01-25T07:43:21.014Z,939.72
2018-01-25T07:44:21.006Z,939.65
2018-01-25T07:45:21.002Z,939.72
2018-01-25T07:46:21.000Z,939.68
2018-01-25T07:47:20.996Z,939.70
2018-01-25T07:48:20.994Z,939.77
2018-01-25T07:49:20.996Z,939.75
2018-01-25T07:50:20.998Z,939.69
2018-01-25T07:51:20.991Z,939.74
2018-01-25T07:52:20.990Z,939.78
2018-01-25T07:53:20.990Z,939.78
2018-01-25T07:54:20.990Z,939.72
2018-01-25T07:55:20.989Z,939.73
2018-01-25T07:56:20.989Z,939.73
2018-01-25T07:57:20.989Z,939.73
2018-01-25T07:58:20.988Z,939.75
2018-01-25T07:59:20.988Z,939.70
2018-01-25T08:00:20.991Z,939.73
2018-01-25T08:01:20.991Z,939.74
2018-01-25T08:02:20.991Z,939.75
2018-01-25T08:03:20.993Z,939.79
2018-01-25T08:04:20.994Z,939.74
2018-01-25T08:05:20.995Z,939.70
2018-01-25T08:06:20.994Z,939.68
2018-01-25T08:07:20.995Z,939.68
2018-01-25T08:08:20.998Z,939.64
2018-01-25T08:09:20.998Z,939.63
2018-01-25T08:10:20.999Z,939.64
2018-01-25T08:11:21.000Z,939.60
2018-01-25T08:12:21.002Z,939.55
2018-01-25T08:13:21.003Z,939.54
2018-01-25T08:14:21.004Z,939.61
2018-01-25T08:15:21.006Z,939.57
2018-01-25T08:16:21.007Z,939.59
2018-01-25T08:17:21.009Z,939.62
2018-01-25T08:18:21.011Z,939.56
2018-01-25T08:19:21.011Z,939.60
2018-01-25T08:20:21.011Z,939.58
2018-01-25T08:21:21.013Z,939.54
2018-01-25T08:22:21.014Z,939.56
2018-01-25T08:23:21.016Z,939.54
2018-01-25T08:24:21.016Z,939.49
2018-01-25T08:25:21.017Z,939.51
2018-01-25T08:26:21.017Z,939.53
2018-01-25T08:27:21.017Z,939.46
2018-01-25T08:28:21.017Z,939.45
2018-01-25T08:29:21.090Z,939.42
2018-01-25T08:30:21.018Z,939.41
2018-01-25T08:31:21.017Z,939.40
2018-01-25T08:32:21.057Z,939.38
2018-01-25T08:33:21.017Z,939.38
2018-01-25T08:34:21.015Z,939.36
2018-01-25T08:35:21.016Z,939.40
2018-01-25T08:36:21.014Z,939.37
2018-01-25T08:37:21.281Z,939.36
2018-01-25T08:38:21.014Z,939.31
2018-01-25T08:39:21.013Z,939.34
2018-01-25T08:40:21.012Z,939.35
2018-01-25T08:41:21.013Z,939.37
2018-01-25T08:42:21.011Z,939.36
2018-01-25T08:43:21.012Z,939.37
2018-01-25T08:44:21.011Z,939.36
2018-01-25T08:45:21.012Z,939.35
2018-01-25T08:46:21.049Z,939.35
2018-01-25T08:47:21.013Z,939.36
2018-01-25T08:48:21.014Z,939.34
2018-01-25T08:49:21.017Z,939.32
2018-01-25T08:50:21.016Z,939.33
2018-01-25T08:51:21.016Z,939.30
2018-01-25T08:52:21.015Z,939.29
2018-01-25T08:53:21.018Z,939.27
2018-01-25T08:54:21.017Z,939.26
2018-01-25T08:55:21.018Z,939.27
2018-01-25T08:56:21.020Z,939.26
2018-01-25T08:57:21.020Z,939.27
2018-01-25T08:58:21.018Z,939.28
2018-01-25T08:59:21.020Z,939.19
2018-01-25T09:00:21.061Z,939.31
2018-01-25T09:01:21.020Z,939.37
2018-01-25T09:02:21.020Z,939.28
2018-01-25T09:03:21.019Z,939.27
2018-01-25T09:04:21.020Z,939.24
2018-01-25T09:05:21.020Z,939.27
2018-01-25T09:06:21.019Z,939.28
2018-01-25T09:07:21.018Z,939.28
2018-01-25T09:08:21.069Z,939.21
2018-01-25T09:09:21.020Z,939.26
2018-01-25T09:10:21.020Z,939.24
2018-01-25T09:11:21.019Z,939.21
2018-01-25T09:12:21.024Z,939.20
2018-01-25T09:13:21.021Z,939.22
2018-01-25T09:14:21.019Z,939.12
2018-01-25T09:15:21.023Z,939.14
2018-01-25T09:16:21.021Z,939.13
2018-01-25T09:17:21.022Z,939.16
2018-01-25T09:18:21.022Z,939.12
2018-01-25T09:19:21.022Z,939.09
2018-01-25T09:20:21.022Z,939.08
2018-01-25T09:21:21.023Z,939.09
2018-01-25T09:22:21.022Z,939.03
2018-01-25T09:23:21.024Z,939.07
2018-01-25T09:24:21.022Z,939.05
2018-01-25T09:25:21.023Z,939.03
2018-01-25T09:26:21.039Z,939.06
2018-01-25T09:27:21.024Z,939.05
2018-01-25T09:28:21.024Z,939.06
2018-01-25T09:29:21.024Z,939.07
2018-01-25T09:30:21.025Z,939.00
2018-01-25T09:31:21.026Z,939.02
2018-01-25T09:32:21.067Z,939.05
2018-01-25T09:33:21.026Z,939.08
2018-01-25T09:34:21.026Z,939.13
2018-01-25T09:35:21.026Z,939.07
2018-01-25T09:36:21.028Z,939.07
2018-01-25T09:37:21.027Z,939.07
2018-01-25T09:38:21.027Z,939.05
2018-01-25T09:39:21.028Z,939.12
2018-01-25T09:40:21.028Z,939.11
2018-01-25T09:41:21.028Z,939.03
2018-01-25T09:42:21.028Z,939.07
2018-01-25T09:43:21.038Z,939.04
2018-01-25T09:44:21.031Z,939.07
2018-01-25T09:45:21.032Z,939.11
2018-01-25T09:46:21.032Z,939.03
2018-01-25T09:47:21.202Z,939.04
2018-01-25T09:48:21.035Z,939.03
2018-01-25T09:49:21.037Z,939.04
2018-01-25T09:50:21.037Z,939.05
2018-01-25T09:51:21.040Z,939.02
2018-01-25T09:52:21.042Z,938.99
2018-01-25T09:53:21.044Z,939.01
2018-01-25T09:54:21.062Z,938.93
2018-01-25T09:55:21.047Z,938.98
2018-01-25T09:56:21.048Z,939.01
2018-01-25T09:57:21.050Z,938.98
2018-01-25T09:58:21.050Z,938.94
2018-01-25T09:59:21.053Z,938.93
2018-01-25T10:00:21.054Z,938.93
2018-01-25T10:01:21.058Z,938.95
2018-01-25T10:02:21.060Z,938.96
2018-01-25T10:03:21.060Z,938.91
2018-01-25T10:04:21.063Z,938.90
2018-01-25T10:05:21.065Z,938.88
2018-01-25T10:06:21.068Z,938.81
2018-01-25T10:07:21.077Z,938.88
2018-01-25T10:08:21.073Z,938.81
2018-01-25T10:09:21.075Z,938.83
2018-01-25T10:10:21.122Z,938.83
2018-01-25T10:11:21.079Z,938.79
2018-01-25T10:12:21.082Z,938.82
2018-01-25T10:13:21.086Z,938.77
2018-01-25T10:14:21.087Z,938.79
2018-01-25T10:15:21.093Z,938.81
2018-01-25T10:16:21.094Z,938.80
2018-01-25T10:17:21.098Z,938.75
2018-01-25T10:18:21.099Z,938.78
2018-01-25T10:19:21.317Z,938.75
2018-01-25T10:20:21.106Z,938.78
2018-01-25T10:21:21.109Z,938.77
2018-01-25T10:22:21.113Z,938.80
2018-01-25T10:23:21.116Z,938.75
2018-01-25T10:24:21.120Z,938.74
2018-01-25T10:25:21.124Z,938.76
2018-01-25T10:26:21.127Z,938.71
2018-01-25T10:27:21.132Z,938.71
2018-01-25T10:28:21.135Z,938.67
2018-01-25T10:29:21.138Z,938.69
2018-01-25T10:30:21.142Z,938.69
2018-01-25T10:31:21.147Z,938.77
2018-01-25T10:32:21.150Z,938.77
2018-01-25T10:33:21.155Z,938.73
2018-01-25T10:34:21.159Z,938.73
2018-01-25T10:35:21.165Z,938.70
2018-01-25T10:36:21.204Z,938.73
2018-01-25T10:37:21.175Z,938.70
2018-01-25T10:38:21.179Z,938.69
2018-01-25T10:39:21.184Z,938.67
2018-01-25T10:40:21.192Z,938.65
2018-01-25T10:41:21.193Z,938.67
2018-01-25T10:42:21.200Z,938.67
2018-01-25T10:43:21.205Z,938.66
2018-01-25T10:44:21.211Z,938.65
2018-01-25T10:45:21.216Z,938.70
2018-01-25T10:46:21.222Z,938.74
2018-01-25T10:47:21.227Z,938.74
2018-01-25T10:48:21.235Z,938.70
2018-01-25T10:49:21.242Z,938.71
2018-01-25T10:50:21.247Z,938.64
2018-01-25T10:51:21.252Z,938.60
2018-01-25T10:52:21.260Z,938.59
2018-01-25T10:53:21.268Z,938.59
2018-01-25T10:54:21.272Z,938.59
2018-01-25T10:55:21.279Z,938.56
2018-01-25T10:56:21.286Z,938.60
2018-01-25T10:57:21.298Z,938.59
2018-01-25T10:58:21.296Z,938.53
2018-01-25T10:59:21.302Z,938.55
2018-01-25T11:00:21.311Z,938.54
2018-01-25T11:01:21.316Z,938.54
2018-01-25T11:02:21.322Z,938.55
2018-01-25T11:03:21.330Z,938.53
2018-01-25T11:04:21.337Z,938.50
2018-01-25T11:05:21.344Z,938.48
2018-01-25T11:06:21.349Z,938.49
2018-01-25T11:07:21.355Z,938.48
2018-01-25T11:08:21.364Z,938.42
2018-01-25T11:09:21.371Z,938.36
2018-01-25T11:10:21.376Z,938.35
2018-01-25T11:11:21.385Z,938.31
2018-01-25T11:12:21.392Z,938.29
2018-01-25T11:13:21.399Z,938.29
2018-01-25T11:14:21.405Z,938.27
2018-01-25T11:15:21.413Z,938.26
2018-01-25T11:16:21.418Z,938.28
2018-01-25T11:17:21.427Z,938.23
2018-01-25T11:18:21.433Z,938.19
2018-01-25T11:19:21.439Z,938.18
2018-01-25T11:20:21.444Z,938.16
2018-01-25T11:21:21.451Z,938.13
2018-01-25T11:22:21.460Z,938.13
2018-01-25T11:23:21.501Z,938.14
2018-01-25T11:24:21.470Z,938.08
2018-01-25T11:25:21.484Z,938.07
2018-01-25T11:26:21.480Z,938.03
2018-01-25T11:27:21.485Z,938.05
2018-01-25T11:28:21.490Z,938.00
2018-01-25T11:29:21.496Z,938.02
2018-01-25T11:30:21.501Z,938.04
2018-01-25T11:31:21.506Z,938.00
2018-01-25T11:32:21.510Z,937.95
2018-01-25T11:33:21.517Z,937.94
2018-01-25T11:34:21.520Z,937.90
2018-01-25T11:35:21.526Z,937.90
2018-01-25T11:36:21.531Z,937.85
2018-01-25T11:37:21.535Z,937.84
2018-01-25T11:38:21.539Z,937.82
2018-01-25T11:39:21.545Z,937.84
2018-01-25T11:40:21.550Z,937.81
2018-01-25T11:41:21.555Z,937.83
2018-01-25T11:42:21.558Z,937.86
2018-01-25T11:43:21.563Z,937.79
2018-01-25T11:44:21.567Z,937.75
2018-01-25T11:45:21.575Z,937.75
2018-01-25T11:46:21.575Z,937.70
2018-01-25T11:47:21.581Z,937.68
2018-01-25T11:48:21.584Z,937.70
2018-01-25T11:49:21.590Z,937.66
2018-01-25T11:50:21.593Z,937.60
2018-01-25T11:51:21.598Z,937.68
2018-01-25T11:52:21.601Z,937.61
2018-01-25T11:53:21.604Z,937.56
2018-01-25T11:54:21.608Z,937.52
2018-01-25T11:55:21.611Z,937.50
2018-01-25T11:56:21.615Z,937.49
2018-01-25T11:57:21.619Z,937.49
2018-01-25T11:58:21.621Z,937.49
2018-01-25T11:59:21.626Z,937.46
2018-01-25T12:00:21.628Z,937.44
2018-01-25T12:01:21.637Z,937.43
2018-01-25T12:02:21.636Z,937.41
2018-01-25T12:03:21.639Z,937.41
2018-01-25T12:04:21.642Z,937.40
2018-01-25T12:05:21.646Z,937.37
2018-01-25T12:06:21.650Z,937.31
2018-01-25T12:07:21.654Z,937.32
2018-01-25T12:08:21.657Z,937.28
2018-01-25T12:09:21.664Z,937.26
2018-01-25T12:10:21.666Z,937.22
2018-01-25T12:11:21.671Z,937.21
2018-01-25T12:12:21.674Z,937.24
2018-01-25T12:13:21.679Z,937.18
2018-01-25T12:14:21.683Z,937.15
2018-01-25T12:15:21.686Z,937.10
2018-01-25T12:16:21.691Z,937.10
2018-01-25T12:17:21.695Z,937.06
2018-01-25T12:18:21.700Z,937.03
2018-01-25T12:19:21.703Z,936.97
2018-01-25T12:20:21.708Z,936.93
2018-01-25T12:21:21.713Z,936.95
2018-01-25T12:22:21.718Z,936.94
2018-01-25T12:23:21.722Z,936.93
2018-01-25T12:24:21.884Z,936.91
2018-01-25T12:25:21.732Z,936.88
2018-01-25T12:26:21.734Z,936.88
2018-01-25T12:27:21.744Z,936.82
2018-01-25T12:28:21.744Z,936.77